Time;durP1;ratioP1;P1;durP2;ratioP2;P2;SDS_P1;SDS_P2;PMS_P1;PMS_P2;Temp;Humidity;BMP_temperature;BMP_pressure;BME280_temperature;BME280_humidity;BME280_pressure;Samples;Min_cycle;Max_cycle;Signal;HPM_P1;HPM_P2
2021/03/12 00:01:28;;;;;;;2.07;1.87;;;16.10;57.70;;;;;;5068328;28;20477;-49
2021/03/12 00:03:58;;;;;;;3.23;1.87;;;16.10;57.00;;;;;;5080353;28;20488;-49
2021/03/12 00:06:28;;;;;;;1.73;1.40;;;16.00;56.40;;;;;;5070370;28;20473;-50
2021/03/12 00:08:58;;;;;;;2.00;1.60;;;16.00;55.00;;;;;;5072673;28;20774;-52
2021/03/12 00:11:42;;;;;;;2.33;1.93;;;15.90;55.80;;;;;;5068155;28;20436;-52
2021/03/12 00:14:13;;;;;;;2.30;1.63;;;15.80;57.60;;;;;;5072974;28;20536;-51
2021/03/12 00:16:44;;;;;;;2.20;1.40;;;15.70;57.30;;;;;;5066184;28;20453;-51
2021/03/12 00:19:15;;;;;;;2.40;1.47;;;15.70;57.50;;;;;;5064695;28;20981;-53
2021/03/12 00:21:45;;;;;;;2.77;1.80;;;15.60;58.70;;;;;;5074947;28;20456;-54
2021/03/12 00:24:15;;;;;;;3.63;2.03;;;15.60;58.50;;;;;;5064751;28;20452;-52
2021/03/12 00:26:45;;;;;;;1.90;1.77;;;15.60;58.40;;;;;;5064107;28;20504;-47
2021/03/12 00:29:15;;;;;;;2.00;1.87;;;15.60;58.60;;;;;;5069856;28;20452;-52
2021/03/12 00:31:47;;;;;;;1.90;1.80;;;15.50;58.90;;;;;;5063636;28;20566;-51
2021/03/12 00:34:17;;;;;;;1.93;1.80;;;15.50;58.30;;;;;;5071632;28;21155;-51
2021/03/12 00:36:47;;;;;;;2.50;1.53;;;15.40;58.10;;;;;;5067225;28;20493;-50
2021/03/12 00:39:17;;;;;;;2.10;1.90;;;15.40;58.40;;;;;;5071228;28;20449;-50
2021/03/12 00:42:07;;;;;;;4.90;1.80;;;15.30;59.80;;;;;;5067240;28;20465;-49
2021/03/12 00:44:37;;;;;;;2.03;1.63;;;15.30;59.10;;;;;;5076096;28;20459;-49
2021/03/12 00:47:08;;;;;;;1.40;1.27;;;15.30;58.70;;;;;;5071611;28;20454;-53
2021/03/12 00:49:39;;;;;;;1.80;1.70;;;15.30;59.00;;;;;;5083019;28;20463;-53
2021/03/12 00:52:09;;;;;;;1.27;1.20;;;15.30;59.70;;;;;;5068370;28;20446;-52
2021/03/12 00:54:39;;;;;;;2.43;1.20;;;15.20;55.90;;;;;;5070717;28;20997;-51
2021/03/12 00:57:09;;;;;;;2.30;1.23;;;15.20;56.00;;;;;;5066154;28;20448;-47
2021/03/12 00:59:39;;;;;;;3.50;1.30;;;15.20;55.40;;;;;;5074165;28;20554;-46
2021/03/12 01:02:11;;;;;;;2.60;1.33;;;15.10;56.00;;;;;;5075380;28;21030;-50
2021/03/12 01:04:41;;;;;;;2.40;1.43;;;15.00;57.50;;;;;;5063755;28;20508;-45
2021/03/12 01:07:11;;;;;;;2.23;1.30;;;15.00;58.50;;;;;;5081459;28;20458;-49
2021/03/12 01:09:41;;;;;;;1.70;1.60;;;14.80;58.20;;;;;;5080039;28;20447;-47
2021/03/12 01:12:27;;;;;;;2.10;1.33;;;14.80;59.40;;;;;;5079046;28;20891;-49
2021/03/12 01:14:57;;;;;;;1.80;1.37;;;14.70;60.10;;;;;;5067663;28;20453;-46
2021/03/12 01:17:29;;;;;;;1.93;1.70;;;14.80;57.80;;;;;;5082792;28;20460;-51
2021/03/12 01:20:00;;;;;;;2.03;1.70;;;14.60;58.80;;;;;;5082488;28;20471;-48
2021/03/12 01:22:32;;;;;;;2.23;1.47;;;14.50;60.50;;;;;;5076934;28;20852;-52
2021/03/12 01:25:05;;;;;;;1.60;1.50;;;14.40;59.40;;;;;;5081427;28;20451;-45
2021/03/12 01:27:39;;;;;;;2.17;1.97;;;14.30;60.00;;;;;;5062328;28;20436;-50
2021/03/12 01:30:13;;;;;;;2.73;1.83;;;14.30;61.00;;;;;;5066016;28;20534;-50
2021/03/12 01:32:45;;;;;;;1.97;1.80;;;14.20;62.80;;;;;;5075648;28;20458;-47
2021/03/12 01:35:19;;;;;;;2.47;1.60;;;14.10;61.70;;;;;;5075665;28;20591;-49
2021/03/12 01:37:49;;;;;;;1.70;1.60;;;14.10;61.90;;;;;;5082858;28;20459;-48
2021/03/12 01:40:20;;;;;;;1.77;1.67;;;14.10;63.20;;;;;;5082342;28;20447;-46
2021/03/12 01:42:52;;;;;;;2.20;2.00;;;14.00;63.90;;;;;;5073969;28;20513;-51
2021/03/12 01:45:25;;;;;;;2.90;1.70;;;14.00;63.00;;;;;;5080971;28;20452;-50
2021/03/12 01:47:58;;;;;;;1.60;1.50;;;13.90;63.30;;;;;;5068197;28;20452;-44
2021/03/12 01:50:29;;;;;;;2.10;1.93;;;13.70;64.20;;;;;;5078068;28;20456;-47
2021/03/12 01:52:59;;;;;;;3.43;2.00;;;13.70;65.50;;;;;;5069902;28;20456;-48
2021/03/12 01:55:31;;;;;;;3.50;2.40;;;13.60;66.40;;;;;;5069134;28;20466;-47
2021/03/12 01:58:01;;;;;;;3.20;2.27;;;13.40;65.70;;;;;;5074256;28;20440;-50
2021/03/12 02:00:32;;;;;;;3.90;1.80;;;13.40;67.00;;;;;;5079681;28;20922;-46
2021/03/12 02:03:07;;;;;;;2.73;2.40;;;13.30;66.70;;;;;;5066676;28;20479;-49
2021/03/12 02:05:38;;;;;;;2.90;2.50;;;13.20;66.10;;;;;;5079562;28;20455;-51
2021/03/12 02:08:09;;;;;;;2.00;1.80;;;13.10;66.90;;;;;;5081902;28;20453;-44
2021/03/12 02:10:40;;;;;;;3.00;2.40;;;13.00;67.30;;;;;;5083129;28;20842;-48
2021/03/12 02:13:34;;;;;;;2.57;2.37;;;12.90;67.50;;;;;;5084914;28;20465;-52
2021/03/12 02:16:11;;;;;;;2.97;2.73;;;12.80;68.50;;;;;;5080679;28;20464;-49
2021/03/12 02:18:52;;;;;;;3.13;2.63;;;12.70;68.50;;;;;;5075878;28;20483;-48
2021/03/12 02:21:29;;;;;;;3.30;2.67;;;12.60;69.20;;;;;;5066177;28;20532;-48
2021/03/12 02:24:18;;;;;;;2.90;2.40;;;12.60;69.50;;;;;;5066753;28;20487;-50
2021/03/12 02:27:06;;;;;;;2.47;2.27;;;12.50;71.70;;;;;;5073418;28;20452;-45
2021/03/12 02:29:41;;;;;;;3.50;2.80;;;12.30;75.10;;;;;;5072705;28;20777;-46
2021/03/12 02:32:16;;;;;;;4.20;3.03;;;12.20;81.10;;;;;;5067620;28;20508;-49
2021/03/12 02:34:48;;;;;;;2.80;2.60;;;12.00;81.40;;;;;;5086332;28;20468;-46
2021/03/12 02:37:21;;;;;;;3.30;3.00;;;11.90;86.90;;;;;;5081655;28;20458;-47
2021/03/12 02:39:56;;;;;;;3.03;2.73;;;11.80;89.30;;;;;;5067459;28;20461;-47
2021/03/12 02:42:28;;;;;;;5.27;3.47;;;11.70;90.40;;;;;;5069735;28;20497;-47
2021/03/12 02:45:01;;;;;;;4.00;3.70;;;11.60;91.40;;;;;;5083344;28;20450;-49
2021/03/12 02:47:32;;;;;;;4.13;3.83;;;11.40;92.40;;;;;;5085561;28;20474;-48
2021/03/12 02:50:04;;;;;;;4.30;3.87;;;11.40;92.80;;;;;;5066419;28;20505;-50
2021/03/12 02:52:35;;;;;;;5.90;3.80;;;11.30;93.50;;;;;;5072227;28;20516;-51
2021/03/12 02:55:07;;;;;;;4.10;3.77;;;11.20;94.30;;;;;;5072827;28;20516;-50
2021/03/12 02:57:41;;;;;;;4.10;3.80;;;11.10;97.00;;;;;;5084675;28;20458;-50
2021/03/12 03:00:12;;;;;;;4.47;3.80;;;11.00;97.40;;;;;;5085464;28;20512;-51
2021/03/12 03:02:44;;;;;;;4.60;4.20;;;11.00;97.10;;;;;;5080183;28;20477;-48
2021/03/12 03:05:15;;;;;;;5.35;3.92;;;10.80;97.30;;;;;;5067399;28;20562;-48
2021/03/12 03:07:49;;;;;;;5.00;4.60;;;10.80;97.20;;;;;;5073638;28;20262;-48
2021/03/12 03:10:22;;;;;;;5.20;4.47;;;10.70;97.60;;;;;;5083949;28;20469;-48
2021/03/12 03:12:57;;;;;;;5.40;4.20;;;10.60;97.80;;;;;;5081508;28;20284;-45
2021/03/12 03:15:28;;;;;;;5.50;4.83;;;10.50;98.20;;;;;;5071882;28;20460;-47
2021/03/12 03:18:00;;;;;;;7.55;5.15;;;10.50;99.90;;;;;;5078812;28;20438;-48
2021/03/12 03:20:31;;;;;;;6.32;5.80;;;10.40;99.90;;;;;;5074551;28;20213;-47
2021/03/12 03:23:01;;;;;;;6.67;6.07;;;10.40;99.90;;;;;;5072592;28;20668;-51
2021/03/12 03:25:31;;;;;;;8.13;7.07;;;10.40;99.90;;;;;;5085125;28;20456;-49
2021/03/12 03:28:03;;;;;;;11.00;9.90;;;10.30;99.90;;;;;;5080925;28;20207;-49
2021/03/12 03:30:33;;;;;;;11.35;9.90;;;10.20;99.90;;;;;;5080520;28;20276;-51
2021/03/12 03:33:04;;;;;;;10.35;9.35;;;10.10;99.90;;;;;;5084902;28;20211;-51
2021/03/12 03:35:34;;;;;;;7.95;6.72;;;10.10;99.90;;;;;;5073010;28;20260;-47
2021/03/12 03:38:05;;;;;;;9.50;7.72;;;10.00;99.90;;;;;;5077030;28;20203;-49
2021/03/12 03:40:35;;;;;;;12.45;7.85;;;9.90;99.90;;;;;;5079132;28;20204;-49
2021/03/12 03:43:08;;;;;;;7.32;6.63;;;9.80;99.90;;;;;;5066612;28;20225;-50
2021/03/12 03:45:40;;;;;;;10.13;7.32;;;9.70;99.90;;;;;;5068788;28;20220;-52
2021/03/12 03:48:11;;;;;;;8.20;7.43;;;9.60;99.90;;;;;;5079528;28;20194;-49
2021/03/12 03:50:43;;;;;;;8.63;7.30;;;9.60;99.90;;;;;;5084651;28;20203;-50
2021/03/12 03:53:14;;;;;;;6.40;5.50;;;9.40;99.90;;;;;;5083655;28;20206;-50
2021/03/12 03:55:44;;;;;;;9.45;6.25;;;9.40;99.90;;;;;;5078194;28;20218;-49
2021/03/12 03:58:16;;;;;;;5.93;5.32;;;9.30;99.90;;;;;;5068981;28;20206;-50
2021/03/12 04:00:48;;;;;;;7.00;6.28;;;9.20;99.90;;;;;;5077876;28;20199;-52
2021/03/12 04:03:18;;;;;;;7.45;6.75;;;9.20;99.90;;;;;;5073362;28;20306;-46
2021/03/12 04:05:49;;;;;;;7.10;6.40;;;9.20;99.90;;;;;;5075633;28;20578;-49
2021/03/12 04:08:19;;;;;;;7.07;6.28;;;9.10;99.90;;;;;;5066014;28;20290;-49
2021/03/12 04:10:50;;;;;;;7.00;6.30;;;9.00;99.90;;;;;;5070988;28;20256;-48
2021/03/12 04:13:22;;;;;;;7.13;6.45;;;9.00;99.90;;;;;;5069357;28;20277;-51
2021/03/12 04:15:52;;;;;;;7.03;5.93;;;8.90;99.90;;;;;;5071005;28;20264;-46
2021/03/12 04:18:23;;;;;;;8.23;6.80;;;8.90;99.90;;;;;;5074275;28;20291;-53
2021/03/12 04:20:54;;;;;;;9.40;7.45;;;8.90;99.90;;;;;;5073071;28;20195;-51
2021/03/12 04:23:24;;;;;;;10.88;8.30;;;8.90;99.90;;;;;;5072850;28;20296;-50
2021/03/12 04:25:55;;;;;;;12.02;8.73;;;8.80;99.90;;;;;;5066706;28;20225;-51
2021/03/12 04:28:26;;;;;;;13.13;9.57;;;8.80;99.90;;;;;;5080369;28;20375;-51
2021/03/12 04:30:56;;;;;;;10.70;7.95;;;8.80;99.90;;;;;;5064258;28;20203;-55
2021/03/12 04:33:27;;;;;;;10.38;8.70;;;8.80;99.90;;;;;;5072921;28;20205;-55
2021/03/12 04:35:58;;;;;;;9.68;8.70;;;8.70;99.90;;;;;;5069769;28;20253;-53
2021/03/12 04:38:28;;;;;;;10.88;8.82;;;8.70;99.90;;;;;;5080823;28;20232;-55
2021/03/12 04:40:59;;;;;;;7.70;6.90;;;8.80;99.90;;;;;;5082771;28;20206;-53
2021/03/12 04:43:31;;;;;;;8.80;7.95;;;8.70;99.90;;;;;;5069449;28;20284;-52
2021/03/12 04:46:03;;;;;;;5.97;5.28;;;8.70;99.90;;;;;;5078925;28;20200;-51
2021/03/12 04:48:34;;;;;;;5.03;4.53;;;8.80;99.90;;;;;;5065634;28;20209;-53
2021/03/12 04:51:07;;;;;;;5.15;4.43;;;9.00;99.90;;;;;;5069870;28;20206;-53
2021/03/12 04:53:38;;;;;;;6.78;5.05;;;9.10;99.90;;;;;;5066063;28;20733;-54
2021/03/12 04:56:10;;;;;;;4.50;4.10;;;9.20;99.90;;;;;;5071913;28;20206;-49
2021/03/12 04:58:42;;;;;;;4.80;4.25;;;9.30;99.90;;;;;;5080213;28;20219;-52
2021/03/12 05:01:12;;;;;;;5.05;4.40;;;9.30;99.90;;;;;;5083169;28;20193;-44
2021/03/12 05:03:44;;;;;;;4.25;3.83;;;9.30;99.90;;;;;;5069778;28;20229;-51
2021/03/12 05:06:14;;;;;;;5.10;4.65;;;9.40;99.90;;;;;;5069878;28;20260;-52
2021/03/12 05:08:46;;;;;;;4.15;3.75;;;9.40;99.90;;;;;;5083027;28;20202;-46
2021/03/12 05:11:16;;;;;;;5.63;5.13;;;9.40;99.90;;;;;;5078775;28;20199;-54
2021/03/12 05:13:50;;;;;;;5.50;4.10;;;9.40;99.90;;;;;;5078791;28;20213;-53
2021/03/12 05:16:20;;;;;;;4.22;3.83;;;9.30;99.90;;;;;;5082495;28;20238;-52
2021/03/12 05:18:52;;;;;;;4.88;3.80;;;9.30;99.90;;;;;;5072625;28;20711;-54
2021/03/12 05:21:22;;;;;;;4.13;3.65;;;9.30;99.90;;;;;;5065948;28;20239;-51
2021/03/12 05:23:52;;;;;;;4.15;3.80;;;9.30;99.90;;;;;;5073576;28;20226;-47
2021/03/12 05:26:22;;;;;;;4.15;3.85;;;9.20;99.90;;;;;;5064692;28;20207;-49
2021/03/12 05:28:53;;;;;;;6.30;4.05;;;9.10;99.90;;;;;;5071010;28;20287;-51
2021/03/12 05:31:26;;;;;;;4.78;3.15;;;9.00;99.90;;;;;;5073991;28;20197;-51
2021/03/12 05:33:56;;;;;;;4.10;3.70;;;8.90;99.90;;;;;;5082528;28;20206;-52
2021/03/12 05:36:26;;;;;;;3.92;3.63;;;8.80;99.90;;;;;;5065744;28;20206;-53
2021/03/12 05:38:56;;;;;;;3.92;3.63;;;8.70;99.90;;;;;;5080874;28;20232;-51
2021/03/12 05:41:26;;;;;;;4.22;3.28;;;8.90;99.90;;;;;;5072573;28;20217;-53
2021/03/12 05:44:01;;;;;;;5.55;3.60;;;8.90;99.90;;;;;;5073556;28;20222;-53
2021/03/12 05:46:31;;;;;;;3.78;3.47;;;8.90;99.90;;;;;;5063792;28;20231;-54
2021/03/12 05:49:02;;;;;;;5.10;3.45;;;9.00;99.90;;;;;;5071279;28;20205;-52
2021/03/12 05:51:35;;;;;;;3.60;3.30;;;8.90;99.90;;;;;;5072457;28;20209;-51
2021/03/12 05:54:06;;;;;;;4.53;4.10;;;8.90;99.90;;;;;;5072948;28;20201;-53
2021/03/12 05:56:37;;;;;;;5.15;3.85;;;8.80;99.90;;;;;;5076876;28;20209;-51
2021/03/12 05:59:08;;;;;;;3.40;3.10;;;8.80;99.90;;;;;;5066037;28;20234;-51
2021/03/12 06:01:39;;;;;;;4.13;3.75;;;8.60;99.90;;;;;;5071354;28;20229;-52
2021/03/12 06:04:10;;;;;;;3.70;3.50;;;8.60;99.90;;;;;;5080020;28;20331;-52
2021/03/12 06:06:42;;;;;;;5.68;3.22;;;8.50;99.90;;;;;;5076380;28;20220;-52
2021/03/12 06:09:13;;;;;;;4.03;3.70;;;8.40;99.90;;;;;;5082212;28;20281;-47
2021/03/12 06:11:44;;;;;;;4.25;3.50;;;8.30;99.90;;;;;;5074019;28;20216;-51
2021/03/12 06:14:15;;;;;;;8.13;3.50;;;8.20;99.90;;;;;;5082375;28;20251;-45
2021/03/12 06:16:50;;;;;;;4.07;3.72;;;8.20;99.90;;;;;;5069208;28;20216;-44
2021/03/12 06:19:23;;;;;;;5.50;4.45;;;8.10;99.90;;;;;;5076800;28;20332;-46
2021/03/12 06:21:54;;;;;;;4.30;3.90;;;8.10;99.90;;;;;;5082129;28;20280;-49
2021/03/12 06:24:31;;;;;;;4.50;4.10;;;8.00;99.90;;;;;;5073271;28;20236;-46
2021/03/12 06:27:01;;;;;;;4.63;4.22;;;7.90;99.90;;;;;;5068590;28;20261;-45
2021/03/12 06:29:36;;;;;;;5.07;4.57;;;7.80;99.90;;;;;;5082198;28;20205;-49
2021/03/12 06:32:08;;;;;;;4.15;3.75;;;7.80;99.90;;;;;;5082632;28;20201;-47
2021/03/12 06:34:38;;;;;;;4.25;3.85;;;7.70;99.90;;;;;;5081803;28;20220;-46
2021/03/12 06:37:28;;;;;;;4.18;3.83;;;7.60;99.90;;;;;;5066611;28;20201;-51
2021/03/12 06:39:58;;;;;;;4.72;3.92;;;7.50;99.90;;;;;;5081822;28;20237;-47
2021/03/12 06:42:28;;;;;;;3.72;3.42;;;7.50;99.90;;;;;;5081592;28;20205;-49
2021/03/12 06:45:03;;;;;;;4.70;4.25;;;7.50;99.90;;;;;;5080186;28;20248;-50
2021/03/12 06:47:33;;;;;;;4.55;4.15;;;7.40;99.90;;;;;;5082559;28;20598;-50
2021/03/12 06:50:04;;;;;;;4.78;4.30;;;7.40;99.90;;;;;;5080133;28;20301;-47
2021/03/12 06:52:35;;;;;;;4.50;3.90;;;7.30;99.90;;;;;;5085343;28;20205;-44
2021/03/12 06:55:07;;;;;;;4.70;3.88;;;7.20;99.90;;;;;;5069556;28;20229;-49
2021/03/12 06:57:37;;;;;;;4.72;4.30;;;7.10;99.90;;;;;;5085180;28;20205;-48
2021/03/12 07:00:10;;;;;;;4.82;4.43;;;7.10;99.90;;;;;;5086060;28;20556;-48
2021/03/12 07:02:40;;;;;;;4.10;3.78;;;7.00;99.90;;;;;;5085431;28;20209;-48
2021/03/12 07:05:11;;;;;;;4.63;4.22;;;7.00;99.90;;;;;;5085279;28;20256;-51
2021/03/12 07:07:43;;;;;;;4.00;3.60;;;6.90;99.90;;;;;;5085281;28;20213;-47
2021/03/12 07:10:13;;;;;;;5.00;3.90;;;6.80;99.90;;;;;;5082366;28;20208;-48
2021/03/12 07:12:47;;;;;;;4.97;4.45;;;6.80;99.90;;;;;;5081811;28;20206;-49
2021/03/12 07:15:19;;;;;;;4.60;4.10;;;6.80;99.90;;;;;;5085430;28;20246;-47
2021/03/12 07:17:50;;;;;;;4.20;3.80;;;6.70;99.90;;;;;;5085722;28;20228;-47
2021/03/12 07:20:21;;;;;;;3.88;3.58;;;6.60;99.90;;;;;;5077117;28;20202;-46
2021/03/12 07:22:52;;;;;;;4.13;3.78;;;6.60;99.90;;;;;;5085027;28;20209;-45
2021/03/12 07:25:27;;;;;;;4.38;3.97;;;6.60;99.90;;;;;;5079199;28;20267;-44
2021/03/12 07:28:02;;;;;;;5.00;4.18;;;6.50;99.90;;;;;;5083974;28;20221;-44
2021/03/12 07:30:37;;;;;;;7.50;4.68;;;6.40;99.90;;;;;;5081188;28;20304;-46
2021/03/12 07:33:08;;;;;;;5.05;4.65;;;6.40;99.90;;;;;;5074411;28;20672;-45
2021/03/12 07:35:39;;;;;;;4.32;3.80;;;6.40;99.90;;;;;;5077116;28;20205;-47
2021/03/12 07:38:12;;;;;;;4.55;4.15;;;6.30;99.90;;;;;;5077358;28;20262;-47
2021/03/12 07:40:42;;;;;;;4.93;4.43;;;6.40;99.90;;;;;;5084927;28;20224;-48
2021/03/12 07:43:14;;;;;;;5.53;4.45;;;6.30;99.90;;;;;;5077516;28;20206;-46
2021/03/12 07:45:46;;;;;;;5.65;4.50;;;6.30;99.90;;;;;;5084392;28;20557;-49
2021/03/12 07:48:16;;;;;;;5.38;4.20;;;6.20;99.90;;;;;;5082718;28;20197;-49
2021/03/12 07:50:46;;;;;;;6.15;4.70;;;6.10;99.90;;;;;;5081452;28;20593;-48
2021/03/12 07:53:17;;;;;;;4.90;4.32;;;6.00;99.90;;;;;;5079144;28;20220;-51
2021/03/12 07:55:55;;;;;;;4.55;4.15;;;6.00;99.90;;;;;;5083922;28;20241;-49
2021/03/12 07:58:50;;;;;;;5.75;5.15;;;6.10;99.90;;;;;;5075192;28;20282;-46
2021/03/12 08:01:22;;;;;;;7.78;3.97;;;6.00;99.90;;;;;;5066015;28;20197;-45
2021/03/12 08:03:53;;;;;;;5.25;4.30;;;5.90;99.90;;;;;;5080296;28;20320;-46
2021/03/12 08:06:34;;;;;;;6.07;4.88;;;5.80;99.90;;;;;;5083875;28;20576;-49
2021/03/12 08:09:20;;;;;;;6.13;5.38;;;5.80;99.90;;;;;;5068398;28;20292;-48
2021/03/12 08:11:54;;;;;;;4.80;4.32;;;5.70;99.90;;;;;;5083028;28;20209;-46
2021/03/12 08:14:24;;;;;;;6.82;5.80;;;5.70;99.90;;;;;;5082672;28;20646;-44
2021/03/12 08:17:20;;;;;;;7.07;5.82;;;5.70;99.90;;;;;;5076059;28;20218;-46
2021/03/12 08:19:51;;;;;;;8.38;5.85;;;5.70;99.90;;;;;;5081674;28;20233;-45
2021/03/12 08:22:57;;;;;;;6.60;5.90;;;5.70;99.90;;;;;;5083545;28;20670;-45
2021/03/12 08:25:53;;;;;;;7.07;5.95;;;5.60;99.90;;;;;;5073146;28;20275;-45
2021/03/12 08:28:29;;;;;;;7.95;6.18;;;5.60;99.90;;;;;;5082943;28;20253;-46
2021/03/12 08:31:02;;;;;;;6.40;5.80;;;5.60;99.90;;;;;;5082998;28;20209;-46
2021/03/12 08:33:38;;;;;;;7.38;6.40;;;5.60;99.90;;;;;;5083320;28;20208;-48
2021/03/12 08:36:09;;;;;;;9.80;6.50;;;5.50;99.90;;;;;;5082133;28;20220;-48
2021/03/12 08:38:43;;;;;;;8.18;6.70;;;5.40;99.90;;;;;;5083745;28;20353;-45
2021/03/12 08:41:22;;;;;;;6.15;5.55;;;5.40;99.90;;;;;;5082556;28;20243;-45
2021/03/12 08:43:54;;;;;;;6.38;5.78;;;5.30;99.90;;;;;;5083944;28;20262;-48
2021/03/12 08:46:27;;;;;;;8.05;6.40;;;5.30;99.90;;;;;;5083221;28;20631;-45
2021/03/12 08:49:06;;;;;;;7.88;6.53;;;5.30;99.90;;;;;;5067749;28;20212;-47
2021/03/12 08:51:39;;;;;;;7.25;6.60;;;5.30;99.90;;;;;;5071431;28;20270;-47
2021/03/12 08:54:09;;;;;;;7.40;6.53;;;5.20;99.90;;;;;;5078657;28;20205;-44
2021/03/12 08:56:40;;;;;;;8.30;6.93;;;5.10;99.90;;;;;;5081536;28;20254;-45
2021/03/12 08:59:10;;;;;;;8.35;6.65;;;5.10;99.90;;;;;;5068758;28;20278;-49
2021/03/12 09:01:40;;;;;;;8.93;6.97;;;5.00;99.90;;;;;;5083364;28;20275;-47
2021/03/12 09:04:12;;;;;;;6.78;6.18;;;5.00;99.90;;;;;;5078660;28;20266;-47
2021/03/12 09:06:43;;;;;;;8.43;7.10;;;4.90;99.90;;;;;;5079570;28;20256;-47
2021/03/12 09:09:14;;;;;;;8.45;6.90;;;5.00;99.90;;;;;;5070273;28;20607;-46
2021/03/12 09:11:44;;;;;;;6.25;5.65;;;5.00;99.90;;;;;;5081876;28;20208;-50
2021/03/12 09:14:15;;;;;;;8.00;7.20;;;4.90;99.90;;;;;;5072957;28;20190;-48
2021/03/12 09:16:45;;;;;;;8.95;6.80;;;4.90;99.90;;;;;;5080245;28;20255;-46
2021/03/12 09:19:17;;;;;;;7.95;7.15;;;4.90;99.90;;;;;;5082620;28;20308;-48
2021/03/12 09:21:47;;;;;;;10.25;7.10;;;4.90;99.90;;;;;;5069761;28;20206;-46
2021/03/12 09:24:17;;;;;;;7.03;6.32;;;4.80;99.90;;;;;;5074106;28;20240;-48
2021/03/12 09:26:47;;;;;;;7.80;6.78;;;4.80;99.90;;;;;;5068457;28;20228;-45
2021/03/12 09:29:17;;;;;;;7.78;7.00;;;4.70;99.90;;;;;;5082702;28;20201;-45
2021/03/12 09:31:47;;;;;;;7.72;6.97;;;4.70;99.90;;;;;;5069171;28;20728;-47
2021/03/12 09:34:19;;;;;;;9.05;7.07;;;4.70;99.90;;;;;;5076783;28;20232;-48
2021/03/12 09:36:50;;;;;;;8.65;7.55;;;4.60;99.90;;;;;;5081812;28;20683;-46
2021/03/12 09:39:21;;;;;;;7.93;7.13;;;4.70;99.90;;;;;;5083103;28;20205;-48
2021/03/12 09:41:54;;;;;;;8.98;8.07;;;4.60;99.90;;;;;;5072211;28;20219;-50
2021/03/12 09:44:25;;;;;;;11.23;8.23;;;4.50;99.90;;;;;;5078627;28;20396;-41
2021/03/12 09:46:57;;;;;;;8.38;7.57;;;4.50;99.90;;;;;;5072439;28;20221;-50
2021/03/12 09:49:34;;;;;;;7.88;7.13;;;4.40;99.90;;;;;;5082866;28;20205;-51
2021/03/12 09:52:09;;;;;;;7.55;6.75;;;4.40;99.90;;;;;;5074571;28;20209;-51
2021/03/12 09:54:41;;;;;;;8.93;7.30;;;4.30;99.90;;;;;;5073762;28;20205;-49
2021/03/12 09:57:12;;;;;;;8.77;7.90;;;4.30;99.90;;;;;;5081471;28;20205;-49
2021/03/12 09:59:43;;;;;;;8.25;7.20;;;4.30;99.90;;;;;;5082660;28;20201;-48
2021/03/12 10:02:31;;;;;;;7.15;6.53;;;4.30;99.90;;;;;;5075968;28;20193;-50
2021/03/12 10:05:05;;;;;;;7.50;6.70;;;4.30;99.90;;;;;;5081326;28;20233;-48
2021/03/12 10:07:46;;;;;;;7.85;7.20;;;4.20;99.90;;;;;;5066835;28;20206;-48
2021/03/12 10:10:23;;;;;;;8.05;7.25;;;4.20;99.90;;;;;;5075494;28;20236;-48
2021/03/12 10:12:55;;;;;;;7.60;6.80;;;4.20;99.90;;;;;;5081065;28;20250;-50
2021/03/12 10:15:34;;;;;;;7.40;6.20;;;4.20;99.90;;;;;;5082773;28;20324;-49
2021/03/12 10:18:05;;;;;;;7.88;7.15;;;4.10;99.90;;;;;;5081492;28;20306;-50
2021/03/12 10:20:56;;;;;;;7.45;6.47;;;4.10;99.90;;;;;;5078095;28;20229;-50
2021/03/12 10:23:26;;;;;;;10.30;7.50;;;4.10;99.90;;;;;;5072121;28;20594;-48
2021/03/12 10:25:56;;;;;;;8.70;6.85;;;4.00;99.90;;;;;;5085511;28;20307;-47
2021/03/12 10:28:28;;;;;;;9.02;7.38;;;3.90;99.90;;;;;;5062804;28;20332;-48
2021/03/12 10:31:00;;;;;;;8.35;7.18;;;4.00;99.90;;;;;;5074660;28;20313;-50
2021/03/12 10:33:32;;;;;;;8.70;7.78;;;3.90;99.90;;;;;;5083083;28;20233;-47
2021/03/12 10:36:05;;;;;;;8.73;7.43;;;3.90;99.90;;;;;;5078320;28;20217;-50
2021/03/12 10:38:36;;;;;;;8.77;6.90;;;3.90;99.90;;;;;;5081449;28;20558;-51
2021/03/12 10:41:17;;;;;;;9.35;7.80;;;3.80;99.90;;;;;;5069524;28;20216;-48
2021/03/12 10:43:57;;;;;;;9.07;7.57;;;3.80;99.90;;;;;;5075139;28;20216;-45
2021/03/12 10:46:27;;;;;;;10.07;8.45;;;3.70;99.90;;;;;;5077646;28;20212;-50
2021/03/12 10:48:58;;;;;;;10.73;8.95;;;3.70;99.90;;;;;;5075497;28;20271;-52
2021/03/12 10:51:39;;;;;;;9.05;8.13;;;3.70;99.90;;;;;;5077888;28;20292;-48
2021/03/12 10:54:12;;;;;;;10.02;8.50;;;3.70;99.90;;;;;;5071734;28;20214;-48
2021/03/12 10:56:48;;;;;;;9.90;9.00;;;3.70;99.90;;;;;;5075870;28;20209;-48
2021/03/12 10:59:18;;;;;;;12.30;9.93;;;3.70;99.90;;;;;;5070010;28;20213;-47
2021/03/12 11:01:50;;;;;;;11.60;10.45;;;3.70;99.90;;;;;;5078728;28;20205;-46
2021/03/12 11:04:20;;;;;;;12.70;10.20;;;3.70;99.90;;;;;;5077510;28;20307;-46
2021/03/12 11:06:52;;;;;;;11.50;10.30;;;3.60;99.90;;;;;;5082954;28;20574;-48
2021/03/12 11:09:21;;;;;;;12.15;10.27;;;3.60;99.90;;;;;;5085393;28;20536;-47
2021/03/12 11:11:54;;;;;;;16.55;10.65;;;3.60;99.90;;;;;;5075707;28;20209;-47
2021/03/12 11:14:27;;;;;;;13.52;10.15;;;3.60;99.90;;;;;;5076859;28;20205;-51
2021/03/12 11:16:57;;;;;;;11.80;9.50;;;3.50;99.90;;;;;;5083839;28;20197;-50
2021/03/12 11:19:28;;;;;;;13.52;10.48;;;3.50;99.90;;;;;;5076321;28;20294;-53
2021/03/12 11:21:59;;;;;;;9.60;8.60;;;3.50;99.90;;;;;;5071276;28;20204;-52
2021/03/12 11:24:29;;;;;;;9.88;8.82;;;3.40;99.90;;;;;;5082036;28;20221;-53
2021/03/12 11:26:59;;;;;;;8.75;7.95;;;3.30;99.90;;;;;;5083303;28;20267;-52
2021/03/12 11:29:32;;;;;;;10.27;9.27;;;3.30;99.90;;;;;;5080681;28;20226;-48
2021/03/12 11:32:02;;;;;;;9.63;8.68;;;3.30;99.90;;;;;;5076159;28;20217;-50
2021/03/12 11:34:32;;;;;;;12.32;9.43;;;3.30;99.90;;;;;;5077387;28;20210;-53
2021/03/12 11:37:03;;;;;;;10.13;8.98;;;3.30;99.90;;;;;;5075988;28;20253;-51
2021/03/12 11:39:33;;;;;;;13.05;9.20;;;3.30;99.90;;;;;;5084129;28;20280;-51
2021/03/12 11:42:04;;;;;;;12.77;10.57;;;3.20;99.90;;;;;;5083670;28;20227;-51
2021/03/12 11:44:34;;;;;;;13.20;9.30;;;3.20;99.90;;;;;;5081648;28;20229;-51
2021/03/12 11:47:04;;;;;;;10.82;9.63;;;3.20;99.90;;;;;;5072621;28;20212;-51
2021/03/12 11:49:35;;;;;;;11.40;9.13;;;3.20;99.90;;;;;;5079763;28;20236;-51
2021/03/12 11:52:08;;;;;;;12.02;9.02;;;3.20;99.90;;;;;;5083120;28;20255;-48
2021/03/12 11:54:38;;;;;;;11.85;9.05;;;3.10;99.90;;;;;;5080901;28;20284;-50
2021/03/12 11:57:08;;;;;;;11.30;9.63;;;3.10;99.90;;;;;;5080339;28;20216;-52
2021/03/12 11:59:39;;;;;;;11.52;9.05;;;3.10;99.90;;;;;;5084318;28;20284;-48
2021/03/12 12:02:10;;;;;;;9.93;8.93;;;3.10;99.90;;;;;;5083848;28;20263;-50
2021/03/12 12:04:40;;;;;;;10.23;8.43;;;3.00;99.90;;;;;;5083550;28;20217;-49
2021/03/12 12:07:11;;;;;;;9.65;8.73;;;3.00;99.90;;;;;;5079117;28;20240;-47
2021/03/12 12:09:41;;;;;;;12.07;9.25;;;2.90;99.90;;;;;;5075706;28;20220;-47
2021/03/12 12:12:13;;;;;;;11.38;9.52;;;2.90;99.90;;;;;;5071132;28;20232;-48
2021/03/12 12:14:43;;;;;;;10.57;9.57;;;2.90;99.90;;;;;;5081769;28;20570;-51
2021/03/12 12:17:14;;;;;;;10.88;8.70;;;2.90;99.90;;;;;;5076184;28;20227;-47
2021/03/12 12:19:45;;;;;;;10.80;8.70;;;2.90;99.90;;;;;;5083486;28;20237;-46
2021/03/12 12:22:17;;;;;;;11.18;9.93;;;3.00;99.90;;;;;;5084392;28;20201;-52
2021/03/12 12:24:47;;;;;;;10.48;9.38;;;2.90;99.90;;;;;;5078482;28;20224;-48
2021/03/12 12:27:17;;;;;;;9.60;8.60;;;2.90;99.90;;;;;;5078324;28;20293;-46
2021/03/12 12:29:47;;;;;;;9.82;8.73;;;2.80;99.90;;;;;;5068666;28;20229;-52
2021/03/12 12:32:18;;;;;;;9.75;8.00;;;2.80;99.90;;;;;;5076730;28;20670;-46
2021/03/12 12:34:48;;;;;;;9.85;8.30;;;2.80;99.90;;;;;;5069699;28;20224;-46
2021/03/12 12:37:20;;;;;;;9.93;8.77;;;2.70;99.90;;;;;;5069054;28;20201;-51
2021/03/12 12:39:50;;;;;;;10.90;9.23;;;2.70;99.90;;;;;;5082041;28;20239;-48
2021/03/12 12:42:20;;;;;;;9.88;8.45;;;2.60;99.90;;;;;;5082815;28;20227;-47
2021/03/12 12:44:50;;;;;;;11.63;9.35;;;2.60;99.90;;;;;;5072517;28;20295;-49
2021/03/12 12:47:21;;;;;;;12.05;9.05;;;2.60;99.90;;;;;;5066291;28;20361;-46
2021/03/12 12:49:52;;;;;;;11.73;9.52;;;2.70;99.90;;;;;;5070107;28;20296;-50
2021/03/12 12:52:24;;;;;;;10.85;8.15;;;2.60;99.90;;;;;;5082939;28;20249;-47
2021/03/12 12:54:54;;;;;;;14.25;9.32;;;2.60;99.90;;;;;;5072798;28;20232;-49
2021/03/12 12:57:24;;;;;;;10.15;9.15;;;2.60;99.90;;;;;;5082558;28;20202;-49
2021/03/12 12:59:54;;;;;;;11.00;9.77;;;2.60;99.90;;;;;;5082875;28;20227;-47
2021/03/12 13:02:24;;;;;;;9.10;8.20;;;2.50;99.90;;;;;;5081558;28;20235;-51
2021/03/12 13:04:54;;;;;;;10.18;9.00;;;2.50;99.90;;;;;;5073189;28;20271;-47
2021/03/12 13:07:25;;;;;;;9.95;8.10;;;2.50;99.90;;;;;;5072297;28;20318;-52
2021/03/12 13:09:55;;;;;;;9.23;8.13;;;2.40;99.90;;;;;;5082978;28;20197;-46
2021/03/12 13:12:25;;;;;;;9.70;8.68;;;2.40;99.90;;;;;;5076488;28;20216;-47
2021/03/12 13:14:55;;;;;;;11.05;9.07;;;2.40;99.90;;;;;;5083296;28;20220;-48
2021/03/12 13:17:25;;;;;;;11.30;8.32;;;2.40;99.90;;;;;;5074984;28;20217;-46
2021/03/12 13:19:57;;;;;;;10.98;9.38;;;2.40;99.90;;;;;;5075631;28;20229;-46